createdAt,value
2022-12-22T00:02:07.340Z,9.10
2022-12-22T00:06:28.447Z,9.10
2022-12-22T00:10:50.053Z,9.14
2022-12-22T00:15:10.338Z,9.16
2022-12-22T00:19:32.387Z,9.18
2022-12-22T00:23:52.878Z,9.21
2022-12-22T00:28:14.617Z,9.21
2022-12-22T00:32:34.902Z,9.21
2022-12-22T00:36:55.822Z,9.20
2022-12-22T00:41:16.205Z,9.22
2022-12-22T00:45:38.592Z,9.23
2022-12-22T00:50:02.757Z,9.23
2022-12-22T00:54:28.296Z,9.20
2022-12-22T00:58:48.564Z,9.24
2022-12-22T01:03:10.431Z,9.25
2022-12-22T01:07:32.581Z,9.24
2022-12-22T01:11:53.434Z,9.25
2022-12-22T01:16:13.635Z,9.25
2022-12-22T01:20:35.386Z,9.28
2022-12-22T01:24:55.643Z,9.32
2022-12-22T01:29:16.138Z,9.35
2022-12-22T01:33:36.390Z,9.36
2022-12-22T01:37:58.045Z,9.37
2022-12-22T01:42:18.420Z,9.40
2022-12-22T01:46:42.263Z,9.42
2022-12-22T01:51:02.593Z,9.43
2022-12-22T01:55:29.362Z,9.40
2022-12-22T01:59:49.608Z,9.40
2022-12-22T02:04:09.780Z,9.41
2022-12-22T02:08:38.588Z,9.43
2022-12-22T02:13:11.965Z,9.45
2022-12-22T02:17:42.679Z,9.46
2022-12-22T02:22:14.110Z,9.50
2022-12-22T02:26:43.884Z,9.54
2022-12-22T02:31:05.685Z,9.56
2022-12-22T02:35:31.019Z,9.59
2022-12-22T02:40:01.532Z,9.58
2022-12-22T02:44:40.506Z,9.55
2022-12-22T02:49:09.197Z,9.57
2022-12-22T02:53:32.135Z,9.62
2022-12-22T02:57:52.989Z,9.64
2022-12-22T03:02:15.138Z,9.65
2022-12-22T03:06:35.741Z,9.61
2022-12-22T03:10:56.087Z,9.61
2022-12-22T03:15:16.613Z,9.62
2022-12-22T03:19:38.093Z,9.62
2022-12-22T03:23:58.885Z,9.62
2022-12-22T03:28:04.053Z,9.64
2022-12-22T03:32:06.921Z,9.69
2022-12-22T03:36:11.850Z,9.68
2022-12-22T03:40:14.876Z,9.66
2022-12-22T03:44:34.999Z,9.67
2022-12-22T03:48:37.789Z,9.68
2022-12-22T03:52:41.930Z,9.66
2022-12-22T03:56:45.411Z,9.65
2022-12-22T04:00:49.024Z,9.65
2022-12-22T04:04:51.868Z,9.65
2022-12-22T04:08:56.125Z,9.69
2022-12-22T04:12:57.949Z,9.72
2022-12-22T04:17:00.957Z,9.73
2022-12-22T04:21:03.838Z,9.75
2022-12-22T04:25:09.155Z,9.76
2022-12-22T04:29:11.903Z,9.73
2022-12-22T04:33:14.753Z,9.71
2022-12-22T04:37:18.077Z,9.68
2022-12-22T04:41:22.316Z,9.68
2022-12-22T04:45:25.213Z,9.68
2022-12-22T04:49:28.063Z,9.67
2022-12-22T04:53:31.924Z,9.69
2022-12-22T04:57:40.741Z,9.72
2022-12-22T05:01:44.245Z,9.75
2022-12-22T05:05:47.259Z,9.78
2022-12-22T05:09:50.094Z,9.79
2022-12-22T05:13:54.252Z,9.73
2022-12-22T05:17:58.085Z,9.72
2022-12-22T05:22:00.951Z,9.74
2022-12-22T05:26:03.983Z,9.73
2022-12-22T05:30:09.842Z,9.69
2022-12-22T05:34:12.620Z,9.73
2022-12-22T05:38:15.371Z,9.77
2022-12-22T05:42:35.731Z,9.82
2022-12-22T05:46:40.135Z,9.84
2022-12-22T05:50:42.974Z,9.84
2022-12-22T05:54:46.188Z,9.87
2022-12-22T05:58:49.012Z,9.84
2022-12-22T06:02:53.273Z,9.83
2022-12-22T06:06:56.112Z,9.82
2022-12-22T06:10:59.767Z,9.88
2022-12-22T06:15:02.697Z,9.86
2022-12-22T06:19:07.015Z,9.82
2022-12-22T06:23:09.906Z,9.79
2022-12-22T06:27:12.880Z,9.81
2022-12-22T06:31:15.736Z,9.84
2022-12-22T06:35:19.989Z,9.84
2022-12-22T06:39:22.977Z,9.85
2022-12-22T06:43:26.377Z,9.86
2022-12-22T06:47:29.151Z,9.88
2022-12-22T06:51:33.278Z,9.90
2022-12-22T06:55:36.976Z,9.89
2022-12-22T06:59:40.217Z,9.88
2022-12-22T07:03:42.993Z,9.85
2022-12-22T07:07:47.263Z,9.81
2022-12-22T07:11:50.026Z,9.79
2022-12-22T07:16:00.166Z,9.78
2022-12-22T07:20:03.870Z,9.77
2022-12-22T07:24:08.862Z,9.77
2022-12-22T07:28:16.786Z,9.76
2022-12-22T07:32:23.385Z,9.74
2022-12-22T07:36:26.128Z,9.74
2022-12-22T07:40:30.343Z,9.72
2022-12-22T07:44:33.091Z,9.68
2022-12-22T07:48:53.665Z,9.64
2022-12-22T07:52:57.364Z,9.58
2022-12-22T07:57:01.518Z,9.62
2022-12-22T08:01:04.229Z,9.63
2022-12-22T08:05:09.006Z,9.65
2022-12-22T08:09:16.076Z,9.67
2022-12-22T08:13:20.542Z,9.67
2022-12-22T08:17:23.379Z,9.66
2022-12-22T08:21:26.172Z,9.69
2022-12-22T08:25:28.975Z,9.70
2022-12-22T08:29:36.602Z,9.66
2022-12-22T08:33:39.381Z,9.64
2022-12-22T08:37:45.650Z,9.61
2022-12-22T08:41:51.622Z,9.64
2022-12-22T08:45:55.865Z,9.63
2022-12-22T08:49:58.606Z,9.61
2022-12-22T08:54:04.897Z,9.62
2022-12-22T08:58:09.012Z,9.57
2022-12-22T09:02:13.296Z,9.55
2022-12-22T09:06:17.551Z,9.66
2022-12-22T09:10:20.462Z,9.69
2022-12-22T09:14:23.275Z,9.71
2022-12-22T09:18:27.400Z,9.74
2022-12-22T09:22:30.101Z,9.80
2022-12-22T09:26:33.458Z,9.83
2022-12-22T09:30:36.219Z,9.82
2022-12-22T09:34:40.522Z,9.86
2022-12-22T09:38:44.575Z,9.83
2022-12-22T09:42:49.441Z,9.76
2022-12-22T09:46:54.338Z,9.79
2022-12-22T09:50:59.216Z,9.81
2022-12-22T09:55:02.427Z,9.84
2022-12-22T09:59:11.307Z,9.86
2022-12-22T10:03:29.363Z,9.79
2022-12-22T10:07:35.257Z,9.72
2022-12-22T10:11:38.104Z,9.68
2022-12-22T10:15:42.553Z,9.67
2022-12-22T10:19:46.856Z,9.66
2022-12-22T10:23:51.234Z,9.67
2022-12-22T10:27:56.933Z,9.70
2022-12-22T10:32:02.943Z,9.75
2022-12-22T10:36:07.537Z,9.71
2022-12-22T10:40:17.671Z,9.71
2022-12-22T10:44:25.528Z,9.69
2022-12-22T10:48:33.363Z,9.65
2022-12-22T10:52:36.432Z,9.61
2022-12-22T10:56:40.992Z,9.57
2022-12-22T11:00:44.827Z,9.55
2022-12-22T11:04:48.190Z,9.51
2022-12-22T11:08:51.968Z,9.47
2022-12-22T11:13:24.920Z,9.49
2022-12-22T11:17:36.646Z,9.42
2022-12-22T11:21:46.344Z,9.43
2022-12-22T11:25:59.007Z,9.41
2022-12-22T11:30:11.841Z,9.41
2022-12-22T11:34:30.188Z,9.36
2022-12-22T11:38:47.369Z,9.35
2022-12-22T11:43:07.832Z,9.37
2022-12-22T11:47:27.279Z,9.42
2022-12-22T11:51:48.418Z,9.44
2022-12-22T11:56:06.528Z,9.46
2022-12-22T12:00:12.094Z,9.45
2022-12-22T12:04:38.429Z,9.46
2022-12-22T12:08:55.376Z,9.47
2022-12-22T12:13:10.416Z,9.52
2022-12-22T12:17:21.484Z,9.57
2022-12-22T12:21:29.638Z,9.55
2022-12-22T12:25:41.653Z,9.56
2022-12-22T12:30:06.463Z,9.57
2022-12-22T12:34:18.140Z,9.60
2022-12-22T12:39:06.191Z,9.59
2022-12-22T12:42:54.832Z,9.60
2022-12-22T12:47:21.356Z,9.59
2022-12-22T12:51:50.123Z,9.57
2022-12-22T12:55:57.231Z,9.56
2022-12-22T13:00:00.937Z,9.56
2022-12-22T13:04:05.287Z,9.53
2022-12-22T13:08:20.124Z,9.56
2022-12-22T13:12:40.662Z,9.53
2022-12-22T13:16:43.486Z,9.57
2022-12-22T13:20:54.251Z,9.51
2022-12-22T13:25:00.507Z,9.45
2022-12-22T13:29:10.829Z,9.45
2022-12-22T13:33:18.825Z,9.42
2022-12-22T13:37:23.418Z,9.43
2022-12-22T13:41:27.641Z,9.39
2022-12-22T13:45:35.677Z,9.33
2022-12-22T13:50:07.901Z,9.30
2022-12-22T13:54:14.168Z,9.34
2022-12-22T13:58:27.569Z,9.29
2022-12-22T14:02:33.847Z,9.22
2022-12-22T14:06:38.610Z,9.18
2022-12-22T14:10:45.327Z,9.18
2022-12-22T14:14:50.580Z,9.12
2022-12-22T14:18:54.947Z,9.11
2022-12-22T14:23:02.793Z,9.07
2022-12-22T14:27:05.863Z,9.06
2022-12-22T14:31:09.023Z,9.06
2022-12-22T14:35:25.613Z,9.05
2022-12-22T14:39:31.381Z,9.04
2022-12-22T14:43:34.229Z,9.07
2022-12-22T14:47:38.447Z,9.05
2022-12-22T14:51:42.726Z,9.08
2022-12-22T14:55:52.465Z,9.02
2022-12-22T15:00:06.416Z,8.92
2022-12-22T15:04:18.414Z,8.85
2022-12-22T15:08:39.035Z,8.80
2022-12-22T15:12:42.363Z,8.79
2022-12-22T15:16:46.423Z,8.79
2022-12-22T15:20:49.444Z,8.79
2022-12-22T15:24:53.864Z,8.83
2022-12-22T15:28:56.644Z,8.82
2022-12-22T15:32:59.471Z,8.81
2022-12-22T15:37:02.244Z,8.81
2022-12-22T15:41:07.254Z,8.81
2022-12-22T15:45:10.605Z,8.87
2022-12-22T15:49:17.613Z,8.86
2022-12-22T15:53:21.729Z,8.88
2022-12-22T15:57:25.930Z,8.92
2022-12-22T16:01:28.878Z,8.95
2022-12-22T16:05:31.927Z,8.92
2022-12-22T16:09:41.393Z,8.95
2022-12-22T16:13:46.442Z,8.94
2022-12-22T16:17:52.019Z,8.94
2022-12-22T16:21:55.182Z,8.98
2022-12-22T16:26:01.987Z,8.98
2022-12-22T16:30:12.933Z,8.96
2022-12-22T16:34:15.965Z,8.97
2022-12-22T16:38:19.580Z,8.97
2022-12-22T16:46:44.569Z,8.90
2022-12-22T16:50:48.622Z,8.84
2022-12-22T16:54:52.911Z,8.80
2022-12-22T16:58:56.071Z,8.78
2022-12-22T17:03:05.400Z,8.75
2022-12-22T17:07:08.386Z,8.73
2022-12-22T17:11:17.694Z,8.70
2022-12-22T17:15:22.474Z,8.66
2022-12-22T17:19:26.643Z,8.65
2022-12-22T17:23:33.283Z,8.67
2022-12-22T17:27:36.372Z,8.69
2022-12-22T17:31:39.229Z,8.70
2022-12-22T17:35:44.648Z,8.69
2022-12-22T17:39:50.545Z,8.69
2022-12-22T17:43:53.379Z,8.70
2022-12-22T17:47:56.180Z,8.73
2022-12-22T17:52:00.479Z,8.73
2022-12-22T17:56:08.639Z,8.70
2022-12-22T18:00:18.698Z,8.68
2022-12-22T18:04:22.036Z,8.72
2022-12-22T18:08:26.304Z,8.72
2022-12-22T18:12:29.844Z,8.70
2022-12-22T18:16:32.722Z,8.68
2022-12-22T18:20:35.647Z,8.69
2022-12-22T18:24:39.768Z,8.70
2022-12-22T18:28:43.348Z,8.70
2022-12-22T18:32:46.283Z,8.74
2022-12-22T18:36:49.433Z,8.74
2022-12-22T18:40:53.810Z,8.75
2022-12-22T18:44:56.640Z,8.67
2022-12-22T18:49:05.343Z,8.66
2022-12-22T18:53:19.441Z,8.71
2022-12-22T18:57:23.546Z,8.67
2022-12-22T19:01:27.998Z,8.56
2022-12-22T19:05:32.673Z,8.51
2022-12-22T19:09:35.751Z,8.50
2022-12-22T19:13:43.121Z,8.54
2022-12-22T19:17:46.053Z,8.54
2022-12-22T19:21:50.349Z,8.59
2022-12-22T19:25:56.166Z,8.59
2022-12-22T19:30:04.477Z,8.61
2022-12-22T19:34:15.580Z,8.65
2022-12-22T19:38:21.137Z,8.68
2022-12-22T19:42:25.755Z,8.66
2022-12-22T19:46:34.484Z,8.71
2022-12-22T19:50:37.286Z,8.72
2022-12-22T19:54:40.088Z,8.75
2022-12-22T19:58:42.960Z,8.78
2022-12-22T20:02:48.606Z,8.82
2022-12-22T20:06:51.510Z,8.87
2022-12-22T20:10:58.353Z,8.94
2022-12-22T20:15:02.400Z,8.96
2022-12-22T20:19:10.282Z,8.96
2022-12-22T20:23:16.139Z,8.98
2022-12-22T20:27:22.204Z,9.00
2022-12-22T20:31:26.129Z,9.06
2022-12-22T20:35:30.437Z,9.06
2022-12-22T20:39:33.238Z,9.06
2022-12-22T20:43:37.924Z,9.08
2022-12-22T20:47:40.873Z,9.08
2022-12-22T20:51:45.015Z,9.12
2022-12-22T20:55:48.997Z,9.14
2022-12-22T20:59:56.049Z,9.19
2022-12-22T21:03:59.579Z,9.22
2022-12-22T21:08:03.825Z,9.28
2022-12-22T21:12:07.157Z,9.37
2022-12-22T21:16:14.266Z,9.44
2022-12-22T21:20:20.498Z,9.50
2022-12-22T21:24:24.656Z,9.58
2022-12-22T21:28:32.721Z,9.67
2022-12-22T21:32:35.433Z,9.74
2022-12-22T21:36:39.207Z,9.78
2022-12-22T21:40:46.520Z,9.86
2022-12-22T21:44:50.542Z,9.92
2022-12-22T21:48:53.288Z,9.94
2022-12-22T21:52:56.185Z,9.99
2022-12-22T21:57:00.404Z,10.03
2022-12-22T22:01:03.223Z,10.07
2022-12-22T22:05:06.548Z,10.10
2022-12-22T22:09:09.463Z,10.11
2022-12-22T22:13:15.991Z,10.14
2022-12-22T22:17:18.790Z,10.16
2022-12-22T22:21:21.617Z,10.18
2022-12-22T22:25:25.012Z,10.23
2022-12-22T22:29:29.116Z,10.24
2022-12-22T22:33:31.850Z,10.28
2022-12-22T22:37:34.641Z,10.28
2022-12-22T22:41:42.928Z,10.30
2022-12-22T22:45:47.771Z,10.30
2022-12-22T22:49:50.536Z,10.30
2022-12-22T22:53:53.324Z,10.35
2022-12-22T22:57:56.138Z,10.37
2022-12-22T23:02:00.443Z,10.36
2022-12-22T23:06:03.785Z,10.39
2022-12-22T23:10:07.291Z,10.40
2022-12-22T23:14:12.703Z,10.40
2022-12-22T23:18:16.827Z,10.44
2022-12-22T23:22:19.611Z,10.45
2022-12-22T23:26:22.579Z,10.46
2022-12-22T23:30:25.377Z,10.44
2022-12-22T23:34:29.792Z,10.44
2022-12-22T23:38:33.233Z,10.43
2022-12-22T23:42:35.992Z,10.45
2022-12-22T23:46:38.851Z,10.43
2022-12-22T23:50:46.198Z,10.47
2022-12-22T23:54:49.034Z,10.49
2022-12-22T23:58:54.943Z,10.48
